sensor_id;sensor_type;location;lat;lon;timestamp;pressure;altitude;pressure_sealevel;temperature;humidity
6942;BME280;3510;43.200;27.920;2022-07-29T00:01:18;101113.06;;;29.23;54.30
6942;BME280;3510;43.200;27.920;2022-07-29T00:03:45;101113.16;;;29.32;53.68
6942;BME280;3510;43.200;27.920;2022-07-29T00:06:12;101107.19;;;28.75;54.41
6942;BME280;3510;43.200;27.920;2022-07-29T00:08:38;101111.81;;;28.96;53.62
6942;BME280;3510;43.200;27.920;2022-07-29T00:11:05;101112.00;;;28.51;54.34
6942;BME280;3510;43.200;27.920;2022-07-29T00:13:32;101106.09;;;28.59;53.57
6942;BME280;3510;43.200;27.920;2022-07-29T00:15:58;101112.34;;;28.74;53.59
6942;BME280;3510;43.200;27.920;2022-07-29T00:18:26;101116.78;;;29.46;51.80
6942;BME280;3510;43.200;27.920;2022-07-29T00:20:53;101109.22;;;29.60;51.74
6942;BME280;3510;43.200;27.920;2022-07-29T00:23:20;101108.38;;;29.64;51.63
6942;BME280;3510;43.200;27.920;2022-07-29T00:25:47;101110.38;;;29.18;52.41
6942;BME280;3510;43.200;27.920;2022-07-29T00:28:13;101105.91;;;29.06;52.82
6942;BME280;3510;43.200;27.920;2022-07-29T00:30:40;101107.63;;;29.06;53.28
6942;BME280;3510;43.200;27.920;2022-07-29T00:33:08;101113.69;;;29.06;53.30
6942;BME280;3510;43.200;27.920;2022-07-29T00:35:36;101111.59;;;29.48;52.12
6942;BME280;3510;43.200;27.920;2022-07-29T00:38:12;101112.06;;;29.14;53.00
6942;BME280;3510;43.200;27.920;2022-07-29T00:40:38;101106.34;;;28.76;53.51
6942;BME280;3510;43.200;27.920;2022-07-29T00:43:05;101122.28;;;29.02;52.74
6942;BME280;3510;43.200;27.920;2022-07-29T00:45:32;101109.50;;;29.17;52.64
6942;BME280;3510;43.200;27.920;2022-07-29T00:47:58;101108.09;;;29.42;51.67
6942;BME280;3510;43.200;27.920;2022-07-29T00:50:25;101106.34;;;29.40;51.80
6942;BME280;3510;43.200;27.920;2022-07-29T00:52:53;101110.09;;;29.63;51.41
6942;BME280;3510;43.200;27.920;2022-07-29T00:55:20;101098.16;;;29.78;50.68
6942;BME280;3510;43.200;27.920;2022-07-29T00:57:47;101098.94;;;29.71;50.39
6942;BME280;3510;43.200;27.920;2022-07-29T01:00:15;101099.44;;;29.42;51.02
6942;BME280;3510;43.200;27.920;2022-07-29T01:02:42;101103.88;;;29.51;50.75
6942;BME280;3510;43.200;27.920;2022-07-29T01:05:09;101103.59;;;29.29;51.41
6942;BME280;3510;43.200;27.920;2022-07-29T01:07:37;101104.72;;;29.50;51.10
6942;BME280;3510;43.200;27.920;2022-07-29T01:10:07;101106.63;;;28.98;52.10
6942;BME280;3510;43.200;27.920;2022-07-29T01:12:36;101095.78;;;29.25;51.73
6942;BME280;3510;43.200;27.920;2022-07-29T01:15:04;101106.69;;;28.99;51.98
6942;BME280;3510;43.200;27.920;2022-07-29T01:17:32;101098.94;;;29.01;52.09
6942;BME280;3510;43.200;27.920;2022-07-29T01:20:03;101103.16;;;28.95;52.26
6942;BME280;3510;43.200;27.920;2022-07-29T01:22:37;101099.97;;;29.12;51.87
6942;BME280;3510;43.200;27.920;2022-07-29T01:25:23;101094.72;;;29.07;51.64
6942;BME280;3510;43.200;27.920;2022-07-29T01:28:08;101092.22;;;29.16;51.46
6942;BME280;3510;43.200;27.920;2022-07-29T01:30:42;101087.91;;;29.15;51.42
6942;BME280;3510;43.200;27.920;2022-07-29T01:33:11;101090.09;;;28.88;51.97
6942;BME280;3510;43.200;27.920;2022-07-29T01:36:00;101084.44;;;29.15;51.69
6942;BME280;3510;43.200;27.920;2022-07-29T01:38:27;101090.31;;;29.03;52.22
6942;BME280;3510;43.200;27.920;2022-07-29T01:40:58;101085.59;;;28.75;52.78
6942;BME280;3510;43.200;27.920;2022-07-29T01:43:31;101082.50;;;27.91;55.23
6942;BME280;3510;43.200;27.920;2022-07-29T01:46:01;101085.22;;;27.53;56.85
6942;BME280;3510;43.200;27.920;2022-07-29T01:48:31;101085.94;;;27.46;57.25
6942;BME280;3510;43.200;27.920;2022-07-29T01:51:02;101084.06;;;27.81;56.29
6942;BME280;3510;43.200;27.920;2022-07-29T01:53:31;101082.75;;;28.06;55.66
6942;BME280;3510;43.200;27.920;2022-07-29T01:56:00;101077.19;;;27.82;56.12
6942;BME280;3510;43.200;27.920;2022-07-29T01:58:28;101078.88;;;28.33;54.66
6942;BME280;3510;43.200;27.920;2022-07-29T02:00:56;101079.59;;;28.22;54.66
6942;BME280;3510;43.200;27.920;2022-07-29T02:03:25;101076.44;;;28.40;54.41
6942;BME280;3510;43.200;27.920;2022-07-29T02:05:52;101074.16;;;28.60;53.89
6942;BME280;3510;43.200;27.920;2022-07-29T02:08:19;101076.47;;;27.92;55.02
6942;BME280;3510;43.200;27.920;2022-07-29T02:10:47;101076.78;;;28.10;55.06
6942;BME280;3510;43.200;27.920;2022-07-29T02:13:15;101069.84;;;27.59;56.14
6942;BME280;3510;43.200;27.920;2022-07-29T02:15:43;101081.09;;;28.08;54.94
6942;BME280;3510;43.200;27.920;2022-07-29T02:18:12;101076.44;;;27.89;55.25
6942;BME280;3510;43.200;27.920;2022-07-29T02:20:42;101075.72;;;27.96;54.79
6942;BME280;3510;43.200;27.920;2022-07-29T02:23:09;101067.78;;;27.87;55.25
6942;BME280;3510;43.200;27.920;2022-07-29T02:25:36;101066.28;;;28.01;54.75
6942;BME280;3510;43.200;27.920;2022-07-29T02:28:04;101072.59;;;28.17;54.18
6942;BME280;3510;43.200;27.920;2022-07-29T02:30:31;101076.25;;;28.30;54.07
6942;BME280;3510;43.200;27.920;2022-07-29T02:32:59;101070.66;;;28.05;54.55
6942;BME280;3510;43.200;27.920;2022-07-29T02:35:26;101073.22;;;28.02;54.93
6942;BME280;3510;43.200;27.920;2022-07-29T02:37:54;101071.16;;;27.83;55.22
6942;BME280;3510;43.200;27.920;2022-07-29T02:40:42;101065.63;;;28.13;54.60
6942;BME280;3510;43.200;27.920;2022-07-29T02:43:09;101084.47;;;28.06;55.11
6942;BME280;3510;43.200;27.920;2022-07-29T02:45:37;101082.31;;;28.30;54.32
6942;BME280;3510;43.200;27.920;2022-07-29T02:48:05;101077.19;;;28.35;53.99
6942;BME280;3510;43.200;27.920;2022-07-29T02:50:33;101084.88;;;27.79;55.31
6942;BME280;3510;43.200;27.920;2022-07-29T02:53:05;101086.09;;;27.99;55.02
6942;BME280;3510;43.200;27.920;2022-07-29T02:55:34;101091.31;;;28.01;54.34
6942;BME280;3510;43.200;27.920;2022-07-29T02:58:03;101088.97;;;28.16;54.19
6942;BME280;3510;43.200;27.920;2022-07-29T03:00:33;101085.44;;;28.11;53.82
6942;BME280;3510;43.200;27.920;2022-07-29T03:03:03;101085.16;;;27.50;55.11
6942;BME280;3510;43.200;27.920;2022-07-29T03:05:30;101087.59;;;27.41;55.60
6942;BME280;3510;43.200;27.920;2022-07-29T03:07:58;101091.41;;;27.61;54.60
6942;BME280;3510;43.200;27.920;2022-07-29T03:10:28;101093.06;;;27.56;54.70
6942;BME280;3510;43.200;27.920;2022-07-29T03:12:55;101090.94;;;27.81;54.27
6942;BME280;3510;43.200;27.920;2022-07-29T03:15:22;101090.59;;;27.64;54.48
6942;BME280;3510;43.200;27.920;2022-07-29T03:17:49;101092.19;;;27.56;54.72
6942;BME280;3510;43.200;27.920;2022-07-29T03:20:17;101101.03;;;27.67;54.61
6942;BME280;3510;43.200;27.920;2022-07-29T03:22:44;101105.63;;;27.39;55.24
6942;BME280;3510;43.200;27.920;2022-07-29T03:25:12;101105.25;;;27.63;54.35
6942;BME280;3510;43.200;27.920;2022-07-29T03:27:40;101112.31;;;27.72;54.35
6942;BME280;3510;43.200;27.920;2022-07-29T03:30:07;101111.28;;;28.09;53.47
6942;BME280;3510;43.200;27.920;2022-07-29T03:32:35;101116.13;;;28.39;52.76
6942;BME280;3510;43.200;27.920;2022-07-29T03:35:02;101112.84;;;28.48;52.12
6942;BME280;3510;43.200;27.920;2022-07-29T03:37:28;101118.22;;;28.62;52.00
6942;BME280;3510;43.200;27.920;2022-07-29T03:39:56;101111.91;;;28.44;52.60
6942;BME280;3510;43.200;27.920;2022-07-29T03:42:24;101113.78;;;28.53;52.64
6942;BME280;3510;43.200;27.920;2022-07-29T03:44:54;101112.22;;;28.14;53.39
6942;BME280;3510;43.200;27.920;2022-07-29T03:47:22;101120.47;;;28.40;53.01
6942;BME280;3510;43.200;27.920;2022-07-29T03:49:51;101128.34;;;28.46;52.56
6942;BME280;3510;43.200;27.920;2022-07-29T03:52:18;101125.81;;;28.50;52.41
6942;BME280;3510;43.200;27.920;2022-07-29T03:54:46;101124.38;;;28.17;53.33
6942;BME280;3510;43.200;27.920;2022-07-29T03:57:13;101123.88;;;28.38;52.52
6942;BME280;3510;43.200;27.920;2022-07-29T03:59:42;101125.75;;;28.45;52.67
6942;BME280;3510;43.200;27.920;2022-07-29T04:02:11;101128.81;;;28.24;52.99
6942;BME280;3510;43.200;27.920;2022-07-29T04:04:38;101133.38;;;28.95;51.32
6942;BME280;3510;43.200;27.920;2022-07-29T04:07:05;101133.00;;;29.28;50.35
6942;BME280;3510;43.200;27.920;2022-07-29T04:09:31;101133.16;;;29.42;49.77
6942;BME280;3510;43.200;27.920;2022-07-29T04:11:58;101130.13;;;29.07;50.42
6942;BME280;3510;43.200;27.920;2022-07-29T04:14:25;101130.50;;;29.36;49.94
6942;BME280;3510;43.200;27.920;2022-07-29T04:16:52;101128.84;;;29.44;49.75
6942;BME280;3510;43.200;27.920;2022-07-29T04:19:20;101133.59;;;29.07;50.46
6942;BME280;3510;43.200;27.920;2022-07-29T04:21:47;101121.59;;;29.85;48.71
6942;BME280;3510;43.200;27.920;2022-07-29T04:24:14;101119.00;;;29.87;48.46
6942;BME280;3510;43.200;27.920;2022-07-29T04:26:41;101122.88;;;30.32;47.92
6942;BME280;3510;43.200;27.920;2022-07-29T04:29:08;101120.78;;;29.96;48.50
6942;BME280;3510;43.200;27.920;2022-07-29T04:31:37;101121.31;;;29.59;49.49
6942;BME280;3510;43.200;27.920;2022-07-29T04:34:03;101121.66;;;29.95;48.42
6942;BME280;3510;43.200;27.920;2022-07-29T04:36:32;101125.28;;;30.13;47.98
6942;BME280;3510;43.200;27.920;2022-07-29T04:38:59;101119.97;;;30.00;48.29
6942;BME280;3510;43.200;27.920;2022-07-29T04:41:26;101116.72;;;30.21;47.81
6942;BME280;3510;43.200;27.920;2022-07-29T04:43:53;101120.78;;;31.02;45.48
6942;BME280;3510;43.200;27.920;2022-07-29T04:46:21;101121.53;;;30.81;46.23
6942;BME280;3510;43.200;27.920;2022-07-29T04:48:50;101124.75;;;30.48;46.65
6942;BME280;3510;43.200;27.920;2022-07-29T04:51:18;101124.66;;;30.36;47.24
6942;BME280;3510;43.200;27.920;2022-07-29T04:53:46;101114.84;;;30.06;47.89
6942;BME280;3510;43.200;27.920;2022-07-29T04:56:13;101112.31;;;30.13;47.76
6942;BME280;3510;43.200;27.920;2022-07-29T04:58:40;101120.50;;;30.61;46.83
6942;BME280;3510;43.200;27.920;2022-07-29T05:01:07;101119.56;;;30.48;47.12
6942;BME280;3510;43.200;27.920;2022-07-29T05:03:33;101118.78;;;30.61;47.00
6942;BME280;3510;43.200;27.920;2022-07-29T05:06:00;101121.84;;;30.14;47.92
6942;BME280;3510;43.200;27.920;2022-07-29T05:08:27;101116.09;;;30.49;47.50
6942;BME280;3510;43.200;27.920;2022-07-29T05:10:56;101113.19;;;30.12;48.06
6942;BME280;3510;43.200;27.920;2022-07-29T05:13:24;101113.72;;;30.81;46.95
6942;BME280;3510;43.200;27.920;2022-07-29T05:15:51;101111.97;;;30.74;46.71
6942;BME280;3510;43.200;27.920;2022-07-29T05:18:18;101119.59;;;30.54;47.23
6942;BME280;3510;43.200;27.920;2022-07-29T05:20:47;101117.19;;;30.80;46.70
6942;BME280;3510;43.200;27.920;2022-07-29T05:23:14;101114.59;;;30.79;46.90
6942;BME280;3510;43.200;27.920;2022-07-29T05:25:41;101113.00;;;31.01;45.82
6942;BME280;3510;43.200;27.920;2022-07-29T05:28:09;101116.50;;;31.14;45.97
6942;BME280;3510;43.200;27.920;2022-07-29T05:30:36;101111.41;;;31.30;45.67
6942;BME280;3510;43.200;27.920;2022-07-29T05:33:04;101111.50;;;31.69;44.71
6942;BME280;3510;43.200;27.920;2022-07-29T05:35:31;101116.81;;;31.93;43.84
6942;BME280;3510;43.200;27.920;2022-07-29T05:38:00;101116.81;;;32.24;43.44
6942;BME280;3510;43.200;27.920;2022-07-29T05:40:26;101119.44;;;32.50;42.72
6942;BME280;3510;43.200;27.920;2022-07-29T05:42:53;101122.00;;;32.65;42.27
6942;BME280;3510;43.200;27.920;2022-07-29T05:45:21;101120.22;;;32.90;41.64
6942;BME280;3510;43.200;27.920;2022-07-29T05:47:49;101111.63;;;32.44;42.05
6942;BME280;3510;43.200;27.920;2022-07-29T05:50:16;101120.31;;;32.60;42.11
6942;BME280;3510;43.200;27.920;2022-07-29T05:52:42;101119.41;;;32.58;41.75
6942;BME280;3510;43.200;27.920;2022-07-29T05:55:09;101127.97;;;33.15;40.50
6942;BME280;3510;43.200;27.920;2022-07-29T05:57:51;101124.47;;;33.28;40.33
6942;BME280;3510;43.200;27.920;2022-07-29T06:00:18;101131.50;;;33.06;40.63
6942;BME280;3510;43.200;27.920;2022-07-29T06:08:10;101127.88;;;33.42;39.25
6942;BME280;3510;43.200;27.920;2022-07-29T06:10:36;101125.34;;;33.27;39.65
6942;BME280;3510;43.200;27.920;2022-07-29T06:13:17;101135.69;;;33.53;38.95
6942;BME280;3510;43.200;27.920;2022-07-29T06:15:57;101136.53;;;33.57;38.36
6942;BME280;3510;43.200;27.920;2022-07-29T06:18:26;101131.91;;;34.05;37.89
6942;BME280;3510;43.200;27.920;2022-07-29T06:20:59;101129.09;;;34.26;37.20
6942;BME280;3510;43.200;27.920;2022-07-29T06:26:24;101138.69;;;35.15;35.16
6942;BME280;3510;43.200;27.920;2022-07-29T06:28:50;101131.09;;;34.92;35.44
6942;BME280;3510;43.200;27.920;2022-07-29T06:31:31;101136.56;;;36.08;33.94
6942;BME280;3510;43.200;27.920;2022-07-29T06:33:57;101140.22;;;35.98;33.82
6942;BME280;3510;43.200;27.920;2022-07-29T06:36:24;101136.16;;;36.32;33.40
6942;BME280;3510;43.200;27.920;2022-07-29T06:38:51;101117.56;;;36.48;32.75
6942;BME280;3510;43.200;27.920;2022-07-29T06:41:18;101138.47;;;36.99;32.17
6942;BME280;3510;43.200;27.920;2022-07-29T06:43:46;101144.97;;;37.23;30.97
6942;BME280;3510;43.200;27.920;2022-07-29T06:46:14;101137.47;;;37.48;31.62
6942;BME280;3510;43.200;27.920;2022-07-29T06:48:43;101130.19;;;37.61;31.20
6942;BME280;3510;43.200;27.920;2022-07-29T06:51:19;101131.84;;;35.73;34.89
6942;BME280;3510;43.200;27.920;2022-07-29T06:53:47;101113.94;;;35.40;35.22
6942;BME280;3510;43.200;27.920;2022-07-29T06:56:14;101136.41;;;34.86;36.93
6942;BME280;3510;43.200;27.920;2022-07-29T06:58:41;101119.38;;;35.27;36.21
6942;BME280;3510;43.200;27.920;2022-07-29T07:01:09;101131.81;;;36.30;35.00
6942;BME280;3510;43.200;27.920;2022-07-29T07:03:36;101130.16;;;36.75;33.34
6942;BME280;3510;43.200;27.920;2022-07-29T07:06:03;101128.78;;;37.46;33.23
6942;BME280;3510;43.200;27.920;2022-07-29T07:08:30;101135.69;;;37.06;32.50
6942;BME280;3510;43.200;27.920;2022-07-29T07:10:57;101141.56;;;37.60;32.32
6942;BME280;3510;43.200;27.920;2022-07-29T07:13:24;101137.34;;;37.11;32.05
6942;BME280;3510;43.200;27.920;2022-07-29T07:15:51;101139.06;;;37.55;31.67
6942;BME280;3510;43.200;27.920;2022-07-29T07:18:20;101139.31;;;37.01;32.47
6942;BME280;3510;43.200;27.920;2022-07-29T07:20:47;101147.59;;;36.79;32.48
6942;BME280;3510;43.200;27.920;2022-07-29T07:23:14;101134.25;;;36.90;31.93
6942;BME280;3510;43.200;27.920;2022-07-29T07:25:41;101130.38;;;37.51;31.50
6942;BME280;3510;43.200;27.920;2022-07-29T07:28:08;101141.22;;;36.43;32.20
6942;BME280;3510;43.200;27.920;2022-07-29T07:30:35;101151.66;;;36.94;31.71
6942;BME280;3510;43.200;27.920;2022-07-29T07:33:03;101136.25;;;36.26;31.80
6942;BME280;3510;43.200;27.920;2022-07-29T07:35:31;101140.19;;;35.36;33.07
6942;BME280;3510;43.200;27.920;2022-07-29T07:37:59;101134.78;;;35.51;33.59
6942;BME280;3510;43.200;27.920;2022-07-29T07:40:26;101149.88;;;35.29;33.71
6942;BME280;3510;43.200;27.920;2022-07-29T07:42:53;101149.03;;;35.26;33.83
6942;BME280;3510;43.200;27.920;2022-07-29T07:45:20;101150.56;;;36.61;32.49
6942;BME280;3510;43.200;27.920;2022-07-29T07:47:47;101145.63;;;36.91;32.58
6942;BME280;3510;43.200;27.920;2022-07-29T07:50:14;101154.38;;;36.90;32.54
6942;BME280;3510;43.200;27.920;2022-07-29T07:52:48;101155.31;;;36.86;33.28
6942;BME280;3510;43.200;27.920;2022-07-29T07:55:16;101152.53;;;37.78;32.13
6942;BME280;3510;43.200;27.920;2022-07-29T07:57:43;101147.69;;;36.73;32.97
6942;BME280;3510;43.200;27.920;2022-07-29T08:00:11;101138.19;;;36.66;33.38
6942;BME280;3510;43.200;27.920;2022-07-29T08:02:39;101149.59;;;36.64;32.47
6942;BME280;3510;43.200;27.920;2022-07-29T08:05:08;101148.88;;;37.47;32.36
6942;BME280;3510;43.200;27.920;2022-07-29T08:07:35;101141.16;;;37.38;32.35
6942;BME280;3510;43.200;27.920;2022-07-29T08:10:04;101154.56;;;37.25;32.27
6942;BME280;3510;43.200;27.920;2022-07-29T08:12:32;101146.19;;;37.89;32.04
6942;BME280;3510;43.200;27.920;2022-07-29T08:14:59;101146.88;;;37.58;31.45
6942;BME280;3510;43.200;27.920;2022-07-29T08:17:26;101141.53;;;37.21;30.80
6942;BME280;3510;43.200;27.920;2022-07-29T08:19:53;101142.38;;;36.27;32.11
6942;BME280;3510;43.200;27.920;2022-07-29T08:22:20;101138.38;;;36.57;31.48
6942;BME280;3510;43.200;27.920;2022-07-29T08:24:47;101157.94;;;36.86;31.13
6942;BME280;3510;43.200;27.920;2022-07-29T08:27:21;101125.88;;;37.16;31.20
6942;BME280;3510;43.200;27.920;2022-07-29T08:29:48;101139.19;;;37.49;30.46
6942;BME280;3510;43.200;27.920;2022-07-29T08:32:15;101109.22;;;37.58;30.10
6942;BME280;3510;43.200;27.920;2022-07-29T08:34:42;101148.94;;;37.83;30.06
6942;BME280;3510;43.200;27.920;2022-07-29T08:37:11;101148.53;;;38.01;29.46
6942;BME280;3510;43.200;27.920;2022-07-29T08:39:38;101148.22;;;37.76;29.03
6942;BME280;3510;43.200;27.920;2022-07-29T08:42:07;101146.97;;;38.28;29.31
6942;BME280;3510;43.200;27.920;2022-07-29T08:44:36;101148.63;;;38.32;29.00
6942;BME280;3510;43.200;27.920;2022-07-29T08:47:03;101138.16;;;37.56;29.51
6942;BME280;3510;43.200;27.920;2022-07-29T08:49:33;101143.63;;;37.45;30.20
6942;BME280;3510;43.200;27.920;2022-07-29T08:52:01;101142.78;;;38.21;28.82
6942;BME280;3510;43.200;27.920;2022-07-29T08:54:29;101127.31;;;38.09;30.00
6942;BME280;3510;43.200;27.920;2022-07-29T08:56:57;101141.22;;;38.48;29.31
6942;BME280;3510;43.200;27.920;2022-07-29T08:59:27;101136.84;;;39.12;28.45
6942;BME280;3510;43.200;27.920;2022-07-29T09:01:57;101132.66;;;39.05;28.93
6942;BME280;3510;43.200;27.920;2022-07-29T09:04:29;101135.84;;;39.16;28.29
6942;BME280;3510;43.200;27.920;2022-07-29T09:06:58;101139.50;;;39.42;29.24
6942;BME280;3510;43.200;27.920;2022-07-29T09:09:27;101123.28;;;38.95;29.49
6942;BME280;3510;43.200;27.920;2022-07-29T09:11:55;101133.31;;;38.48;29.90
6942;BME280;3510;43.200;27.920;2022-07-29T09:14:22;101124.50;;;37.77;31.06
6942;BME280;3510;43.200;27.920;2022-07-29T09:16:51;101135.91;;;36.94;31.75
6942;BME280;3510;43.200;27.920;2022-07-29T09:19:23;101129.19;;;36.31;33.47
6942;BME280;3510;43.200;27.920;2022-07-29T09:21:51;101121.47;;;37.97;31.41
6942;BME280;3510;43.200;27.920;2022-07-29T09:24:25;101123.94;;;38.38;30.08
6942;BME280;3510;43.200;27.920;2022-07-29T09:26:52;101123.06;;;38.03;30.05
6942;BME280;3510;43.200;27.920;2022-07-29T09:29:20;101113.22;;;37.34;30.48
6942;BME280;3510;43.200;27.920;2022-07-29T09:31:49;101122.00;;;38.10;29.50
6942;BME280;3510;43.200;27.920;2022-07-29T09:34:20;101125.09;;;37.53;31.23
6942;BME280;3510;43.200;27.920;2022-07-29T09:36:50;101124.25;;;37.90;30.72
6942;BME280;3510;43.200;27.920;2022-07-29T09:39:28;101124.97;;;38.65;30.90
6942;BME280;3510;43.200;27.920;2022-07-29T09:41:57;101132.72;;;38.03;32.17
6942;BME280;3510;43.200;27.920;2022-07-29T09:44:25;101127.59;;;38.31;32.35
6942;BME280;3510;43.200;27.920;2022-07-29T09:46:54;101125.16;;;37.50;33.32
6942;BME280;3510;43.200;27.920;2022-07-29T09:49:21;101116.88;;;38.04;32.73
6942;BME280;3510;43.200;27.920;2022-07-29T09:51:59;101128.34;;;38.37;32.40
6942;BME280;3510;43.200;27.920;2022-07-29T09:54:27;101123.66;;;38.14;32.98
6942;BME280;3510;43.200;27.920;2022-07-29T09:56:55;101129.53;;;38.58;32.31
6942;BME280;3510;43.200;27.920;2022-07-29T09:59:22;101121.53;;;38.63;32.34
6942;BME280;3510;43.200;27.920;2022-07-29T10:01:52;101132.97;;;38.94;32.28
6942;BME280;3510;43.200;27.920;2022-07-29T10:04:19;101125.13;;;37.90;32.95
6942;BME280;3510;43.200;27.920;2022-07-29T10:06:57;101128.34;;;38.37;32.18
6942;BME280;3510;43.200;27.920;2022-07-29T10:09:25;101124.22;;;38.25;32.59
6942;BME280;3510;43.200;27.920;2022-07-29T10:12:06;101128.84;;;38.52;32.57
6942;BME280;3510;43.200;27.920;2022-07-29T10:14:33;101131.34;;;38.56;32.01
6942;BME280;3510;43.200;27.920;2022-07-29T10:17:01;101122.72;;;38.15;33.11
6942;BME280;3510;43.200;27.920;2022-07-29T10:19:29;101134.09;;;38.52;32.95
6942;BME280;3510;43.200;27.920;2022-07-29T10:21:59;101135.22;;;38.43;32.69
6942;BME280;3510;43.200;27.920;2022-07-29T10:24:27;101130.06;;;37.65;34.73
6942;BME280;3510;43.200;27.920;2022-07-29T10:26:55;101130.28;;;37.93;33.91
6942;BME280;3510;43.200;27.920;2022-07-29T10:29:23;101133.44;;;38.08;33.35
6942;BME280;3510;43.200;27.920;2022-07-29T10:32:10;101131.41;;;37.46;34.04
6942;BME280;3510;43.200;27.920;2022-07-29T10:34:57;101122.31;;;37.98;34.39
6942;BME280;3510;43.200;27.920;2022-07-29T10:37:37;101124.38;;;38.21;33.49
6942;BME280;3510;43.200;27.920;2022-07-29T10:40:16;101125.53;;;38.09;34.12
6942;BME280;3510;43.200;27.920;2022-07-29T10:43:07;101117.16;;;38.62;33.46
6942;BME280;3510;43.200;27.920;2022-07-29T10:45:41;101128.41;;;38.67;32.69
6942;BME280;3510;43.200;27.920;2022-07-29T10:48:09;101125.28;;;38.53;32.25
6942;BME280;3510;43.200;27.920;2022-07-29T10:51:00;101121.53;;;38.63;32.50
6942;BME280;3510;43.200;27.920;2022-07-29T10:53:47;101127.13;;;38.83;30.95
6942;BME280;3510;43.200;27.920;2022-07-29T10:56:25;101133.81;;;38.95;31.13
6942;BME280;3510;43.200;27.920;2022-07-29T10:59:24;101130.56;;;38.85;31.54
6942;BME280;3510;43.200;27.920;2022-07-29T11:01:52;101129.56;;;37.87;32.28
6942;BME280;3510;43.200;27.920;2022-07-29T11:07:19;101122.47;;;37.92;32.45
6942;BME280;3510;43.200;27.920;2022-07-29T11:10:22;101131.59;;;38.47;32.56
6942;BME280;3510;43.200;27.920;2022-07-29T11:12:50;101104.66;;;38.70;31.53
6942;BME280;3510;43.200;27.920;2022-07-29T11:15:19;101118.84;;;38.64;31.99
6942;BME280;3510;43.200;27.920;2022-07-29T11:18:07;101117.03;;;38.66;32.07
6942;BME280;3510;43.200;27.920;2022-07-29T11:20:36;101129.00;;;38.45;32.72
6942;BME280;3510;43.200;27.920;2022-07-29T11:23:24;101115.88;;;38.10;33.35
6942;BME280;3510;43.200;27.920;2022-07-29T11:26:15;101121.59;;;38.27;32.96
6942;BME280;3510;43.200;27.920;2022-07-29T11:28:54;101105.50;;;38.39;32.54
6942;BME280;3510;43.200;27.920;2022-07-29T11:31:45;101110.69;;;38.73;32.80
6942;BME280;3510;43.200;27.920;2022-07-29T11:34:21;101108.22;;;38.67;31.97
6942;BME280;3510;43.200;27.920;2022-07-29T11:40:11;101116.09;;;39.31;31.33
6942;BME280;3510;43.200;27.920;2022-07-29T11:42:45;101115.88;;;39.08;31.53
6942;BME280;3510;43.200;27.920;2022-07-29T11:45:14;101107.22;;;38.40;33.60
6942;BME280;3510;43.200;27.920;2022-07-29T11:47:50;101098.41;;;39.05;32.39
6942;BME280;3510;43.200;27.920;2022-07-29T11:50:28;101105.38;;;38.08;33.24
6942;BME280;3510;43.200;27.920;2022-07-29T11:52:55;101089.38;;;38.84;32.70
6942;BME280;3510;43.200;27.920;2022-07-29T11:55:23;101103.44;;;39.71;31.48
6942;BME280;3510;43.200;27.920;2022-07-29T11:57:54;101096.84;;;39.57;32.08
6942;BME280;3510;43.200;27.920;2022-07-29T12:00:28;101085.66;;;40.79;30.02
6942;BME280;3510;43.200;27.920;2022-07-29T12:02:56;101093.22;;;40.14;30.19
6942;BME280;3510;43.200;27.920;2022-07-29T12:05:35;101090.53;;;41.79;28.47
6942;BME280;3510;43.200;27.920;2022-07-29T12:08:08;101099.59;;;42.16;28.66
6942;BME280;3510;43.200;27.920;2022-07-29T12:10:35;101093.53;;;43.13;26.78
6942;BME280;3510;43.200;27.920;2022-07-29T12:13:04;101098.44;;;43.39;26.10
6942;BME280;3510;43.200;27.920;2022-07-29T12:15:31;101083.22;;;44.31;24.81
6942;BME280;3510;43.200;27.920;2022-07-29T12:17:58;101077.28;;;44.26;24.85
6942;BME280;3510;43.200;27.920;2022-07-29T12:20:27;101085.19;;;43.58;25.97
6942;BME280;3510;43.200;27.920;2022-07-29T12:22:55;101079.44;;;43.48;26.54
6942;BME280;3510;43.200;27.920;2022-07-29T12:25:23;101078.13;;;44.27;25.38
6942;BME280;3510;43.200;27.920;2022-07-29T12:27:59;101081.66;;;43.58;25.79
6942;BME280;3510;43.200;27.920;2022-07-29T12:30:40;101071.28;;;44.23;26.09
6942;BME280;3510;43.200;27.920;2022-07-29T12:33:15;101068.13;;;45.14;24.03
6942;BME280;3510;43.200;27.920;2022-07-29T12:35:45;101063.75;;;45.45;24.48
6942;BME280;3510;43.200;27.920;2022-07-29T12:38:14;101075.53;;;45.39;24.50
6942;BME280;3510;43.200;27.920;2022-07-29T12:40:42;101072.47;;;44.83;25.61
6942;BME280;3510;43.200;27.920;2022-07-29T12:43:12;101067.28;;;46.34;23.58
6942;BME280;3510;43.200;27.920;2022-07-29T12:45:43;101059.56;;;45.09;25.11
6942;BME280;3510;43.200;27.920;2022-07-29T12:48:11;101055.03;;;44.62;25.43
6942;BME280;3510;43.200;27.920;2022-07-29T12:50:52;101068.22;;;45.28;24.83
6942;BME280;3510;43.200;27.920;2022-07-29T12:53:19;101033.53;;;43.29;27.13
6942;BME280;3510;43.200;27.920;2022-07-29T12:55:48;101049.53;;;42.11;29.31
6942;BME280;3510;43.200;27.920;2022-07-29T12:58:29;101041.69;;;40.78;31.65
6942;BME280;3510;43.200;27.920;2022-07-29T13:03:58;101049.72;;;40.75;31.93
6942;BME280;3510;43.200;27.920;2022-07-29T13:06:37;101047.75;;;40.06;33.77
6942;BME280;3510;43.200;27.920;2022-07-29T13:09:10;101015.78;;;39.90;33.36
6942;BME280;3510;43.200;27.920;2022-07-29T13:11:40;101043.72;;;39.70;33.67
6942;BME280;3510;43.200;27.920;2022-07-29T13:14:08;101023.56;;;38.53;35.23
6942;BME280;3510;43.200;27.920;2022-07-29T13:16:40;101044.91;;;39.03;34.12
6942;BME280;3510;43.200;27.920;2022-07-29T13:19:34;101027.97;;;38.82;34.44
6942;BME280;3510;43.200;27.920;2022-07-29T13:22:01;101015.84;;;38.47;34.72
6942;BME280;3510;43.200;27.920;2022-07-29T13:24:28;100967.34;;;37.92;35.80
6942;BME280;3510;43.200;27.920;2022-07-29T13:26:55;101043.50;;;38.60;35.60
6942;BME280;3510;43.200;27.920;2022-07-29T13:29:22;101045.44;;;39.14;35.85
6942;BME280;3510;43.200;27.920;2022-07-29T13:31:49;101043.28;;;39.29;35.08